Du har inga inställningar för hoppväder.nu

Hoppväder.nu

Senast uppdaterat 19:28

UTC-tid

2021-07-31 kl. 17:28


Sol och måne

Solen går upp 5:10 och går ner 22:10 (beräknade cirkatider)
Nästa fullmåne blir om 22 dagar (2021-08-22)

METAR

ESMK (Everöd)
(8 minuter sedan)
ESMK 311720Z AUTO 18007KT 9999 // FEW053/// BKN068/// 18/14 Q0999=



ESMS (Malmö)
(8 minuter sedan)
ESMS 311720Z 15005KT 7000 RA SCT014CB BKN031 15/15 Q0998=



ESMX (Växjö)
(38 minuter sedan)
ESMX 311650Z 21009KT 9999 FEW030CB SCT032 BKN090 18/14 Q0999=



ESDF (Ronneby)
(8 minuter sedan)
ESDF 311720Z AUTO 20010KT 9999 NCD 18/15 Q1000=



EKRN (Rønne, Bornholm)
(38 minuter sedan)
EKRN 311650Z AUTO 22016KT 9999 FEW063/// BKN096/// BKN120/// 20/13 Q1001=



TAF

ESMK (Everöd)
ESMK



ESMS (Malmö)
(20 minuter sedan)
ESMS 311708Z 3118/0118 20015KT 9999 SCT030 TEMPO 3118/3122 4000 SHRA BKN012 BKN020CB BECMG 3118/3120 27012KT TEMPO 0110/0118 SCT025TCU=



ESMX (Växjö)
(178 minuter sedan)
ESMX 311430Z 3115/3119 18008KT 9999 SCT030 PROB40 3115/3119 SHRA BKN012 BKN030CB=



ESDF (Ronneby)
(358 minuter sedan)
ESDF 311130Z 3112/3114 20012G22KT 9999 SCT030 PROB40 3112/3114 SHRA TS BKN012 BKN030CB=



EKRN (Rønne, Bornholm)
(372 minuter sedan)
EKRN 311116Z 3112/3117 22015KT 9999 SCT025 TEMPO 3112/3117 22018G28KT SCT020CB=





Kodnycklar till TAF och METAR






LHP

(Everöd är område se11e i Hela Område 1)

Översikt

ÖVERSIKT FÖR OMRÅDE se1 UTFÄRDAD 311121

GÄLLANDE DEN 31 JULI 2021 MELLAN 12 OCH 20 UTC


Väderöversikt
Se väderöversikt för område se2 + se3

Sikt under 5 kilometer eller molnbas under 1000 fot
12-20UTC: I hela området


Måttlig eller svår isbildning
Väntas inte förekomma under perioden

Måttlig eller svår turbulens
12-20UTC: I hela området


Hela Område 1

PROGNOS FÖR OMRÅDE se11 UTFÄRDAD 311121
GÄLLANDE DEN 31 JULI 2021 MELLAN 12 OCH 20 UTC

Måttlig eller svår turbulens
12-16UTC: Område se11i: måttlig turbulens SFC - 3000ft, måttlig turbulens SFC - 2000ft.
Område se11h,se11g,se11f: måttlig turbulens SFC - 3000ft.

12-20UTC: Område se11a,se11e,se11d,se11c,se11b: Väntas inte förekomma under perioden

16-20UTC: Område se11i: måttlig turbulens SFC - 2000ft.
Område se11h,se11g,se11f: Väntas inte förekomma under perioden


Måttlig eller svår isbildning
12-20UTC: I hela området: Väntas inte förekomma under perioden

Sikt/Väder/Moln
12-14UTC: Område se11e,se11c: Sikt >8km, lokalt 5km - 8km i regnskurar, åska. Molnbas 2000ft - 4000ft, lokalt 1000ft - 1500ft.
Område se11a,se11d,se11b: Sikt 3km - >8km i regnskurar, åska. Molnbas 1000ft - 4000ft.
Område se11h,se11g,se11f: Sikt 5km - >8km i regnskurar, åska. Molnbas 1000ft - 4000ft.

12-18UTC: Område se11i: Sikt >8km, lokalt 5km - 8km i regnskurar. Molnbas 2000ft - 4000ft.

14-16UTC: Område se11f: Sikt 3km - >8km i regnskurar, åska. Molnbas 1000ft - 4000ft.

14-18UTC: Område se11h,se11g: Sikt 3km - >8km i regnskurar, åska. Molnbas 1000ft - 4000ft.

14-20UTC: Område se11a,se11e,se11d,se11c,se11b: Sikt >8km, lokalt 3km - 5km i regnskurar, åska. Molnbas 2000ft - 4000ft, lokalt 1000ft - 1500ft.

16-20UTC: Område se11f: Sikt >8km, lokalt 3km - 5km i regnskurar, åska. Molnbas 2000ft - 4000ft, lokalt 1000ft - 1500ft.

18-20UTC: Område se11i: Sikt 3km - >8km i regnskurar, åska. Molnbas 1000ft - 4000ft.
Område se11h,se11g: Sikt >8km, lokalt 3km - 5km i regnskurar, åska. Molnbas 2000ft - 4000ft, lokalt 1000ft - 1500ft.


Molnöversida
12-20UTC: I hela området: Molnöversida > FL125.

CB/TCU Moln
12-14UTC: Område se11e,se11c,se11h,se11g,se11f: ISOL CB
Område se11a,se11d,se11b: ISOL CB, ISOL EMBD CB

12-18UTC: Område se11i: ISOL CB

14-16UTC: Område se11f: ISOL EMBD CB, ISOL CB

14-18UTC: Område se11h,se11g: ISOL EMBD CB, ISOL CB

14-20UTC: Område se11a,se11e,se11d,se11c,se11b: ISOL EMBD CB

16-20UTC: Område se11f: ISOL EMBD CB

18-20UTC: Område se11i: ISOL EMBD CB, ISOL CB
Område se11h,se11g: ISOL EMBD CB


Nollgradersisoterm
12-20UTC: Noll grader FL080 - FL095.

Vind vid marken
12-14UTC: Område se11a: SV/2-19 knop, byar upp till 30 knop.
Område se11b: SV/11-20 knop, byar upp till 27 knop.
Område se11e: SV/1-16 knop, byar upp till 29 knop.
Område se11c: SV/10-24 knop, byar upp till 32 knop.
Område se11f: SV/8-21 knop, byar upp till 34 knop.
Område se11d: SV/3-19 knop, byar upp till 31 knop.
Område se11i: SV-V/9-22 knop, byar upp till 31 knop.
Område se11h: SV/10-23 knop, byar upp till 35 knop.

12-16UTC: Område se11g: SV/15-26 knop, byar upp till 34 knop.

14-16UTC: Område se11h: SV/9-22 knop, byar upp till 32 knop.
Område se11a: SV/4-22 knop, byar upp till 28 knop.
Område se11c: SV/10-23 knop, byar upp till 32 knop.
Område se11f: SV/7-20 knop, byar upp till 34 knop.
Område se11i: SV-V/11-23 knop, byar upp till 33 knop.
Område se11d: S-SV/4-19 knop, byar upp till 27 knop.
Område se11e: SV/5-13 knop, byar upp till 28 knop.
Område se11b: SV/11-21 knop, byar upp till 27 knop.

16-18UTC: Område se11d: S-SV/1-15 knop, byar upp till 23 knop.
Område se11c: S-SV/5-19 knop, byar upp till 32 knop.
Område se11a: SV/3-19 knop, byar upp till 28 knop.
Område se11b: SV/5-18 knop, byar upp till 26 knop.
Område se11i: SV/11-26 knop, byar upp till 34 knop.
Område se11e: S-SV/2-12 knop, byar upp till 25 knop.
Område se11h: SV/7-20 knop, byar upp till 29 knop.
Område se11f: S-SV/1-22 knop, byar upp till 32 knop.
Område se11g: SV/13-31 knop, byar upp till 41 knop.

18-20UTC: Område se11d: SV/0-17 knop, byar upp till 22 knop.
Område se11a: SV-V/2-19 knop, byar upp till 24 knop.
Område se11g: SV-V/8-35 knop, byar upp till 50 knop.
Område se11h: S-SV/2-33 knop, byar upp till 43 knop.
Område se11c: V/1-20 knop, byar upp till 26 knop.
Område se11i: SV/13-32 knop, byar upp till 44 knop.
Område se11f: SV-V/0-24 knop, byar upp till 37 knop.
Område se11e: SO-S/0-6 knop, byar upp till 16 knop.
Område se11b: SV-V/7-20 knop, byar upp till 25 knop.


Genomsnittlig vind och temperatur för området
2000ft:
12-14UTC: 230/24kt +12.
14-16UTC: 230/25kt +12.
16-18UTC: 220/25kt +12.
18-20UTC: 250/25kt +12.

FL50:
12-14UTC: 230/25kt +6.
14-16UTC: 230/26kt +6.
16-18UTC: 230/24kt +6.
18-20UTC: 250/24kt +6.

FL100:
12-14UTC: 220/21kt -2.
14-16UTC: 220/23kt -2.
16-18UTC: 230/23kt -2.
18-20UTC: 250/23kt -2.

Lägsta QNH
996 hPa.

OBS! endast utbredd måttlig eller svår isbildning och turbulens prognostiseras i LLF.
Avsaknad av isbildning och turbulens i prognosen utesluter inte förekomst av lätt isbildning och turbulens.
För indikation på lätt isbildning, var vänlig kontrollera om prognosen för molntopp ligger högre än nollgradersisotermen.
Förekomst av TCU eller CB medför alltid en risk för måttlig eller svår isbildning och turbulens även om det inte framgår explicit av prognosen.





Spotting

Hur fungerar spotthjälpen och Vindkartan?

Markvind är ca 1-6 m/s med byar på 13 m/s.
Vind på 600 m ca 13 m/s.
Vind på 1500 m ca 12 m/s.
Vind på 3000 m ca 12 m/s.
KalleDavid flyger ca 32 m/s över marken på finalen.
Du driver ca 532 m bakåt i frifall. (710 m)
Lämplig spot är 8 sekunder eller 255 m efter gropen.
(13 s eller 415 m)
För små grupper eller ensamhoppare bör man vänta 5-7 sekunder mellan grupperna.
För större grupper bör man vänta 9-11 sekunder mellan grupperna.


Vindkartan

Senast uppdaterad 19:28




All data kommer från LFV.se